Sumter, SC

7:57 PM EDT on October 24, 2014 (GMT -0400)
Shaw Air Force Base | Change Station
CLOSE
Current Station
Airport
Location: Shaw AFB,
Elevation: 243 ft
Nearby Weather Stations

Elev 243 ft 33.97 °N, 80.47 °W | Updated 59 minutes ago

Clear
Clear
65 °F
Feels Like 65 °F
N
4
Wind Variable Wind from North

Today
High -- | Low -- °F
--% Chance of Precip.
Yesterday
High -- | Low -- °F
Precip. -- in
7:33 AM 6:36 PM
New Moon, 1% visible
Pressure 29.98 in
Visibility 10.0 miles
Clouds Mostly Cloudy 20000 ft
Dew Point 46 °F
Humidity 51%
Rainfall 0.00 in
Snow Depth Not available.
UV 0 out of 12
Pollen 3.00 out of 12
Ozone Good
Flu Activity Sporadic
METAR KSSC 242258Z AUTO 36003KT 10SM BKN200 18/08 A2997 RMK AO2 SLP150 T01830080 $

More Conditions Fewer Conditions

Pressure 29.98 in
Visibility 10.0 miles
Clouds Mostly Cloudy 20000 ft
Dew Point 46 °F
Humidity 51%
Rainfall 0.00 in
Snow Depth Not available.
UV 0 out of 12
Pollen 3.00 out of 12
Ozone Good
Flu Activity Sporadic
METAR KSSC 242258Z AUTO 36003KT 10SM BKN200 18/08 A2997 RMK AO2 SLP150 T01830080 $

More Conditions Fewer Conditions

10-Day Weather Forecast

Almanac

Astronomy

Oct. 24, 2014 Rise Set
Actual Time 7:33 AM EDT 6:36 PM EDT
Civil Twilight 7:07 AM EDT 7:01 PM EDT
Nautical Twilight 6:38 AM EDT 7:31 PM EDT
Astronomical Twilight 6:09 AM EDT 8:00 PM EDT
Moon 8:09 AM EDT 7:17 PM EDT
Length of Visible Light 11h 54m
Length of Day
11h 03m
Tomorrow will be 1m 56s shorter.
New Moon, 1% of the Moon is Illuminated
Today
New Moon
Oct 30
First Quarter
Nov 6
Full
Nov 14
Last Quarter
Nov 22
New

Today's Extremes

State Highs State Lows

Community

WunderPhotos

Upload Photos

1,764,713 photos uploaded!

Nearby

Air Quality

  Air Quality AQ Index Pollutant
Yesterday Good
OZONE
Current Good
OZONE

Snow Depth

Station Depth Elevation
No new snow has been reported.

Earthquake Activity

City Distance Mag. Time & Date
No recent earthquake activity has been reported nearby.
Minimum magnitude displayed is 2.5.

Coastal Water Temperatures

Place Temperature
No Stations Reporting

Nearby Weather Stations